sensor_id;sensor_type;location;lat;lon;timestamp;P1;durP1;ratioP1;P2;durP2;ratioP2
5923;SDS011;2987;50.884;14.818;2022-08-25T00:01:29;12.40;;;11.27;;
5923;SDS011;2987;50.884;14.818;2022-08-25T00:03:58;15.20;;;12.50;;
5923;SDS011;2987;50.884;14.818;2022-08-25T00:06:26;16.80;;;12.97;;
5923;SDS011;2987;50.884;14.818;2022-08-25T00:08:52;16.80;;;13.43;;
5923;SDS011;2987;50.884;14.818;2022-08-25T00:11:20;16.00;;;12.10;;
5923;SDS011;2987;50.884;14.818;2022-08-25T00:13:50;16.20;;;12.87;;
5923;SDS011;2987;50.884;14.818;2022-08-25T00:16:19;23.57;;;14.80;;
5923;SDS011;2987;50.884;14.818;2022-08-25T00:18:48;17.50;;;13.83;;
5923;SDS011;2987;50.884;14.818;2022-08-25T00:21:17;16.87;;;14.23;;
5923;SDS011;2987;50.884;14.818;2022-08-25T00:23:44;17.63;;;14.63;;
5923;SDS011;2987;50.884;14.818;2022-08-25T00:26:12;16.40;;;14.03;;
5923;SDS011;2987;50.884;14.818;2022-08-25T00:28:40;18.33;;;15.10;;
5923;SDS011;2987;50.884;14.818;2022-08-25T00:31:10;15.73;;;14.07;;
5923;SDS011;2987;50.884;14.818;2022-08-25T00:33:39;16.53;;;13.27;;
5923;SDS011;2987;50.884;14.818;2022-08-25T00:36:05;17.20;;;13.90;;
5923;SDS011;2987;50.884;14.818;2022-08-25T00:38:31;16.33;;;13.07;;
5923;SDS011;2987;50.884;14.818;2022-08-25T00:40:58;14.23;;;12.83;;
5923;SDS011;2987;50.884;14.818;2022-08-25T00:43:33;13.10;;;11.70;;
5923;SDS011;2987;50.884;14.818;2022-08-25T00:46:07;17.07;;;12.73;;
5923;SDS011;2987;50.884;14.818;2022-08-25T00:48:35;15.43;;;12.57;;
5923;SDS011;2987;50.884;14.818;2022-08-25T00:51:03;18.03;;;14.40;;
5923;SDS011;2987;50.884;14.818;2022-08-25T00:53:36;16.33;;;14.63;;
5923;SDS011;2987;50.884;14.818;2022-08-25T00:56:04;17.47;;;14.00;;
5923;SDS011;2987;50.884;14.818;2022-08-25T00:58:30;16.70;;;13.07;;
5923;SDS011;2987;50.884;14.818;2022-08-25T01:00:59;18.27;;;12.70;;
5923;SDS011;2987;50.884;14.818;2022-08-25T01:03:28;21.53;;;13.83;;
5923;SDS011;2987;50.884;14.818;2022-08-25T01:05:58;16.83;;;12.83;;
5923;SDS011;2987;50.884;14.818;2022-08-25T01:08:28;15.70;;;11.03;;
5923;SDS011;2987;50.884;14.818;2022-08-25T01:10:57;17.23;;;12.77;;
5923;SDS011;2987;50.884;14.818;2022-08-25T01:13:30;15.67;;;11.93;;
5923;SDS011;2987;50.884;14.818;2022-08-25T01:16:01;12.63;;;11.37;;
5923;SDS011;2987;50.884;14.818;2022-08-25T01:18:28;13.43;;;11.70;;
5923;SDS011;2987;50.884;14.818;2022-08-25T01:21:06;28.23;;;14.57;;
5923;SDS011;2987;50.884;14.818;2022-08-25T01:23:32;20.30;;;14.37;;
5923;SDS011;2987;50.884;14.818;2022-08-25T01:26:01;18.23;;;13.03;;
5923;SDS011;2987;50.884;14.818;2022-08-25T01:28:35;17.10;;;13.03;;
5923;SDS011;2987;50.884;14.818;2022-08-25T01:31:03;14.43;;;12.90;;
5923;SDS011;2987;50.884;14.818;2022-08-25T01:33:29;18.60;;;13.10;;
5923;SDS011;2987;50.884;14.818;2022-08-25T01:35:56;17.17;;;13.20;;
5923;SDS011;2987;50.884;14.818;2022-08-25T01:38:22;15.57;;;12.33;;
5923;SDS011;2987;50.884;14.818;2022-08-25T01:40:48;12.80;;;11.17;;
5923;SDS011;2987;50.884;14.818;2022-08-25T01:43:20;19.27;;;14.77;;
5923;SDS011;2987;50.884;14.818;2022-08-25T01:46:01;17.93;;;13.80;;
5923;SDS011;2987;50.884;14.818;2022-08-25T01:48:27;18.07;;;14.57;;
5923;SDS011;2987;50.884;14.818;2022-08-25T01:50:54;24.33;;;16.87;;
5923;SDS011;2987;50.884;14.818;2022-08-25T01:53:22;35.23;;;21.40;;
5923;SDS011;2987;50.884;14.818;2022-08-25T01:55:53;28.93;;;17.93;;
5923;SDS011;2987;50.884;14.818;2022-08-25T01:58:28;22.37;;;16.33;;
5923;SDS011;2987;50.884;14.818;2022-08-25T02:00:58;21.00;;;16.43;;
5923;SDS011;2987;50.884;14.818;2022-08-25T02:03:27;21.67;;;16.40;;
5923;SDS011;2987;50.884;14.818;2022-08-25T02:05:58;22.60;;;17.23;;
5923;SDS011;2987;50.884;14.818;2022-08-25T02:08:25;25.97;;;17.90;;
5923;SDS011;2987;50.884;14.818;2022-08-25T02:10:52;21.77;;;17.43;;
5923;SDS011;2987;50.884;14.818;2022-08-25T02:13:20;19.77;;;16.57;;
5923;SDS011;2987;50.884;14.818;2022-08-25T02:15:49;23.43;;;17.60;;
5923;SDS011;2987;50.884;14.818;2022-08-25T02:18:19;17.77;;;15.87;;
5923;SDS011;2987;50.884;14.818;2022-08-25T02:20:46;20.63;;;16.40;;
5923;SDS011;2987;50.884;14.818;2022-08-25T02:23:13;19.30;;;17.27;;
5923;SDS011;2987;50.884;14.818;2022-08-25T02:25:40;18.00;;;15.50;;
5923;SDS011;2987;50.884;14.818;2022-08-25T02:28:08;21.23;;;18.73;;
5923;SDS011;2987;50.884;14.818;2022-08-25T02:30:36;26.67;;;17.90;;
5923;SDS011;2987;50.884;14.818;2022-08-25T02:33:04;25.23;;;18.10;;
5923;SDS011;2987;50.884;14.818;2022-08-25T02:35:31;23.53;;;18.33;;
5923;SDS011;2987;50.884;14.818;2022-08-25T02:37:57;30.40;;;22.10;;
5923;SDS011;2987;50.884;14.818;2022-08-25T02:40:25;35.93;;;24.47;;
5923;SDS011;2987;50.884;14.818;2022-08-25T02:42:52;29.83;;;21.83;;
5923;SDS011;2987;50.884;14.818;2022-08-25T02:45:20;32.73;;;22.57;;
5923;SDS011;2987;50.884;14.818;2022-08-25T02:47:46;25.87;;;19.43;;
5923;SDS011;2987;50.884;14.818;2022-08-25T02:50:13;21.00;;;17.50;;
5923;SDS011;2987;50.884;14.818;2022-08-25T02:52:39;21.10;;;16.47;;
5923;SDS011;2987;50.884;14.818;2022-08-25T02:55:06;17.17;;;15.40;;
5923;SDS011;2987;50.884;14.818;2022-08-25T02:57:36;16.57;;;14.17;;
5923;SDS011;2987;50.884;14.818;2022-08-25T03:00:03;16.10;;;14.40;;
5923;SDS011;2987;50.884;14.818;2022-08-25T03:02:30;23.93;;;16.63;;
5923;SDS011;2987;50.884;14.818;2022-08-25T03:04:57;22.70;;;15.97;;
5923;SDS011;2987;50.884;14.818;2022-08-25T03:07:23;15.83;;;14.13;;
5923;SDS011;2987;50.884;14.818;2022-08-25T03:09:49;39.03;;;16.93;;
5923;SDS011;2987;50.884;14.818;2022-08-25T03:12:16;18.13;;;15.17;;
5923;SDS011;2987;50.884;14.818;2022-08-25T03:14:42;15.97;;;14.37;;
5923;SDS011;2987;50.884;14.818;2022-08-25T03:17:08;17.00;;;15.20;;
5923;SDS011;2987;50.884;14.818;2022-08-25T03:19:34;19.50;;;15.63;;
5923;SDS011;2987;50.884;14.818;2022-08-25T03:22:01;16.87;;;15.17;;
5923;SDS011;2987;50.884;14.818;2022-08-25T03:24:27;18.50;;;15.07;;
5923;SDS011;2987;50.884;14.818;2022-08-25T03:26:53;15.67;;;13.80;;
5923;SDS011;2987;50.884;14.818;2022-08-25T03:29:23;18.67;;;16.67;;
5923;SDS011;2987;50.884;14.818;2022-08-25T03:31:51;18.77;;;15.97;;
5923;SDS011;2987;50.884;14.818;2022-08-25T03:34:21;19.70;;;17.10;;
5923;SDS011;2987;50.884;14.818;2022-08-25T03:36:51;20.70;;;15.37;;
5923;SDS011;2987;50.884;14.818;2022-08-25T03:39:19;22.57;;;15.77;;
5923;SDS011;2987;50.884;14.818;2022-08-25T03:41:47;23.83;;;16.77;;
5923;SDS011;2987;50.884;14.818;2022-08-25T03:44:15;22.00;;;15.97;;
5923;SDS011;2987;50.884;14.818;2022-08-25T03:46:43;17.80;;;15.10;;
5923;SDS011;2987;50.884;14.818;2022-08-25T03:49:13;21.30;;;17.63;;
5923;SDS011;2987;50.884;14.818;2022-08-25T03:51:43;20.40;;;16.43;;
5923;SDS011;2987;50.884;14.818;2022-08-25T03:54:14;17.77;;;14.70;;
5923;SDS011;2987;50.884;14.818;2022-08-25T03:56:42;17.30;;;15.60;;
5923;SDS011;2987;50.884;14.818;2022-08-25T03:59:08;16.77;;;15.03;;
5923;SDS011;2987;50.884;14.818;2022-08-25T04:01:35;21.03;;;17.30;;
5923;SDS011;2987;50.884;14.818;2022-08-25T04:04:03;20.57;;;15.93;;
5923;SDS011;2987;50.884;14.818;2022-08-25T04:06:30;25.23;;;17.43;;
5923;SDS011;2987;50.884;14.818;2022-08-25T04:08:57;19.30;;;16.20;;
5923;SDS011;2987;50.884;14.818;2022-08-25T04:11:24;18.03;;;16.20;;
5923;SDS011;2987;50.884;14.818;2022-08-25T04:13:54;20.80;;;16.20;;
5923;SDS011;2987;50.884;14.818;2022-08-25T04:16:23;20.70;;;17.37;;
5923;SDS011;2987;50.884;14.818;2022-08-25T04:18:51;21.17;;;18.27;;
5923;SDS011;2987;50.884;14.818;2022-08-25T04:21:20;27.53;;;18.53;;
5923;SDS011;2987;50.884;14.818;2022-08-25T04:23:48;22.80;;;18.80;;
5923;SDS011;2987;50.884;14.818;2022-08-25T04:26:17;26.63;;;19.10;;
5923;SDS011;2987;50.884;14.818;2022-08-25T04:28:47;28.20;;;20.63;;
5923;SDS011;2987;50.884;14.818;2022-08-25T04:31:15;24.30;;;18.57;;
5923;SDS011;2987;50.884;14.818;2022-08-25T04:33:42;21.50;;;16.83;;
5923;SDS011;2987;50.884;14.818;2022-08-25T04:36:09;37.77;;;19.33;;
5923;SDS011;2987;50.884;14.818;2022-08-25T04:38:37;22.23;;;18.20;;
5923;SDS011;2987;50.884;14.818;2022-08-25T04:41:04;18.00;;;15.97;;
5923;SDS011;2987;50.884;14.818;2022-08-25T04:43:34;22.97;;;18.47;;
5923;SDS011;2987;50.884;14.818;2022-08-25T04:46:09;20.23;;;17.43;;
5923;SDS011;2987;50.884;14.818;2022-08-25T04:48:39;22.80;;;18.30;;
5923;SDS011;2987;50.884;14.818;2022-08-25T04:51:06;20.97;;;16.90;;
5923;SDS011;2987;50.884;14.818;2022-08-25T04:53:35;19.00;;;16.30;;
5923;SDS011;2987;50.884;14.818;2022-08-25T04:56:05;24.03;;;18.27;;
5923;SDS011;2987;50.884;14.818;2022-08-25T04:58:34;27.37;;;17.97;;
5923;SDS011;2987;50.884;14.818;2022-08-25T05:01:02;17.57;;;15.77;;
5923;SDS011;2987;50.884;14.818;2022-08-25T05:03:30;19.80;;;17.20;;
5923;SDS011;2987;50.884;14.818;2022-08-25T05:05:56;20.93;;;17.93;;
5923;SDS011;2987;50.884;14.818;2022-08-25T05:08:23;20.67;;;17.63;;
5923;SDS011;2987;50.884;14.818;2022-08-25T05:10:49;21.80;;;19.37;;
5923;SDS011;2987;50.884;14.818;2022-08-25T05:13:15;25.17;;;18.40;;
5923;SDS011;2987;50.884;14.818;2022-08-25T05:15:41;23.57;;;18.97;;
5923;SDS011;2987;50.884;14.818;2022-08-25T05:18:16;21.33;;;18.03;;
5923;SDS011;2987;50.884;14.818;2022-08-25T05:20:44;26.33;;;19.63;;
5923;SDS011;2987;50.884;14.818;2022-08-25T05:23:10;27.60;;;20.77;;
5923;SDS011;2987;50.884;14.818;2022-08-25T05:25:36;27.77;;;21.33;;
5923;SDS011;2987;50.884;14.818;2022-08-25T05:28:03;27.80;;;22.13;;
5923;SDS011;2987;50.884;14.818;2022-08-25T05:30:30;28.37;;;22.63;;
5923;SDS011;2987;50.884;14.818;2022-08-25T05:32:56;23.60;;;20.17;;
5923;SDS011;2987;50.884;14.818;2022-08-25T05:35:22;25.67;;;20.57;;
5923;SDS011;2987;50.884;14.818;2022-08-25T05:37:49;20.60;;;18.43;;
5923;SDS011;2987;50.884;14.818;2022-08-25T05:40:15;18.20;;;16.30;;
5923;SDS011;2987;50.884;14.818;2022-08-25T05:42:41;17.33;;;15.57;;
5923;SDS011;2987;50.884;14.818;2022-08-25T05:45:07;19.00;;;17.00;;
5923;SDS011;2987;50.884;14.818;2022-08-25T05:47:34;19.27;;;17.20;;
5923;SDS011;2987;50.884;14.818;2022-08-25T05:50:00;19.47;;;17.50;;
5923;SDS011;2987;50.884;14.818;2022-08-25T05:52:27;19.23;;;17.23;;
5923;SDS011;2987;50.884;14.818;2022-08-25T05:54:53;19.67;;;17.60;;
5923;SDS011;2987;50.884;14.818;2022-08-25T05:57:19;19.03;;;17.13;;
5923;SDS011;2987;50.884;14.818;2022-08-25T05:59:45;19.67;;;17.77;;
5923;SDS011;2987;50.884;14.818;2022-08-25T06:02:11;21.47;;;17.77;;
5923;SDS011;2987;50.884;14.818;2022-08-25T06:04:57;22.60;;;20.20;;
5923;SDS011;2987;50.884;14.818;2022-08-25T06:07:24;22.83;;;20.27;;
5923;SDS011;2987;50.884;14.818;2022-08-25T06:09:50;24.70;;;20.33;;
5923;SDS011;2987;50.884;14.818;2022-08-25T06:12:16;30.57;;;21.97;;
5923;SDS011;2987;50.884;14.818;2022-08-25T06:14:43;26.23;;;21.97;;
5923;SDS011;2987;50.884;14.818;2022-08-25T06:17:10;23.47;;;20.70;;
5923;SDS011;2987;50.884;14.818;2022-08-25T06:19:36;28.23;;;21.17;;
5923;SDS011;2987;50.884;14.818;2022-08-25T06:22:02;25.33;;;22.43;;
5923;SDS011;2987;50.884;14.818;2022-08-25T06:24:28;26.67;;;21.57;;
5923;SDS011;2987;50.884;14.818;2022-08-25T06:26:55;29.43;;;23.80;;
5923;SDS011;2987;50.884;14.818;2022-08-25T06:29:22;23.53;;;20.40;;
5923;SDS011;2987;50.884;14.818;2022-08-25T06:31:48;25.90;;;21.57;;
5923;SDS011;2987;50.884;14.818;2022-08-25T06:34:15;25.07;;;20.83;;
5923;SDS011;2987;50.884;14.818;2022-08-25T06:36:43;27.57;;;23.13;;
5923;SDS011;2987;50.884;14.818;2022-08-25T06:39:09;25.13;;;22.00;;
5923;SDS011;2987;50.884;14.818;2022-08-25T06:41:36;27.17;;;23.53;;
5923;SDS011;2987;50.884;14.818;2022-08-25T06:44:04;25.60;;;22.70;;
5923;SDS011;2987;50.884;14.818;2022-08-25T06:46:31;26.70;;;23.37;;
5923;SDS011;2987;50.884;14.818;2022-08-25T06:48:58;23.50;;;20.70;;
5923;SDS011;2987;50.884;14.818;2022-08-25T06:51:25;21.33;;;18.97;;
5923;SDS011;2987;50.884;14.818;2022-08-25T06:53:52;28.70;;;22.50;;
5923;SDS011;2987;50.884;14.818;2022-08-25T06:56:19;21.23;;;19.07;;
5923;SDS011;2987;50.884;14.818;2022-08-25T06:58:47;21.50;;;18.77;;
5923;SDS011;2987;50.884;14.818;2022-08-25T07:01:14;22.07;;;19.87;;
5923;SDS011;2987;50.884;14.818;2022-08-25T07:03:44;20.40;;;18.40;;
5923;SDS011;2987;50.884;14.818;2022-08-25T07:06:10;19.63;;;17.63;;
5923;SDS011;2987;50.884;14.818;2022-08-25T07:08:37;20.80;;;18.70;;
5923;SDS011;2987;50.884;14.818;2022-08-25T07:11:05;22.80;;;19.20;;
5923;SDS011;2987;50.884;14.818;2022-08-25T07:13:33;23.07;;;20.63;;
5923;SDS011;2987;50.884;14.818;2022-08-25T07:16:00;23.33;;;19.70;;
5923;SDS011;2987;50.884;14.818;2022-08-25T07:18:27;36.23;;;25.00;;
5923;SDS011;2987;50.884;14.818;2022-08-25T07:20:54;27.23;;;21.33;;
5923;SDS011;2987;50.884;14.818;2022-08-25T07:23:22;25.37;;;22.67;;
5923;SDS011;2987;50.884;14.818;2022-08-25T07:25:49;28.23;;;20.90;;
5923;SDS011;2987;50.884;14.818;2022-08-25T07:28:17;24.17;;;21.57;;
5923;SDS011;2987;50.884;14.818;2022-08-25T07:30:43;22.23;;;19.93;;
5923;SDS011;2987;50.884;14.818;2022-08-25T07:33:11;26.47;;;20.10;;
5923;SDS011;2987;50.884;14.818;2022-08-25T07:35:37;28.80;;;21.70;;
5923;SDS011;2987;50.884;14.818;2022-08-25T07:38:05;28.80;;;20.30;;
5923;SDS011;2987;50.884;14.818;2022-08-25T07:40:33;21.60;;;19.23;;
5923;SDS011;2987;50.884;14.818;2022-08-25T07:43:03;27.70;;;20.67;;
5923;SDS011;2987;50.884;14.818;2022-08-25T07:45:33;25.63;;;18.97;;
5923;SDS011;2987;50.884;14.818;2022-08-25T07:48:03;28.13;;;22.23;;
5923;SDS011;2987;50.884;14.818;2022-08-25T07:50:34;28.63;;;21.77;;
5923;SDS011;2987;50.884;14.818;2022-08-25T07:53:03;29.57;;;21.73;;
5923;SDS011;2987;50.884;14.818;2022-08-25T07:55:30;28.43;;;21.50;;
5923;SDS011;2987;50.884;14.818;2022-08-25T07:58:01;35.63;;;24.47;;
5923;SDS011;2987;50.884;14.818;2022-08-25T08:00:29;28.07;;;21.70;;
5923;SDS011;2987;50.884;14.818;2022-08-25T08:02:57;34.67;;;25.10;;
5923;SDS011;2987;50.884;14.818;2022-08-25T08:05:25;34.03;;;24.70;;
5923;SDS011;2987;50.884;14.818;2022-08-25T08:07:53;30.73;;;22.90;;
5923;SDS011;2987;50.884;14.818;2022-08-25T08:10:20;29.03;;;23.33;;
5923;SDS011;2987;50.884;14.818;2022-08-25T08:12:48;33.10;;;22.53;;
5923;SDS011;2987;50.884;14.818;2022-08-25T08:15:14;26.87;;;22.33;;
5923;SDS011;2987;50.884;14.818;2022-08-25T08:17:40;34.73;;;20.53;;
5923;SDS011;2987;50.884;14.818;2022-08-25T08:20:07;33.90;;;21.90;;
5923;SDS011;2987;50.884;14.818;2022-08-25T08:22:35;25.87;;;20.33;;
5923;SDS011;2987;50.884;14.818;2022-08-25T08:25:03;30.67;;;20.87;;
5923;SDS011;2987;50.884;14.818;2022-08-25T08:27:30;24.83;;;18.00;;
5923;SDS011;2987;50.884;14.818;2022-08-25T08:29:57;27.57;;;19.07;;
5923;SDS011;2987;50.884;14.818;2022-08-25T08:32:23;26.23;;;17.30;;
5923;SDS011;2987;50.884;14.818;2022-08-25T08:34:49;21.00;;;17.53;;
5923;SDS011;2987;50.884;14.818;2022-08-25T08:37:15;22.30;;;15.87;;
5923;SDS011;2987;50.884;14.818;2022-08-25T08:39:41;25.27;;;16.73;;
5923;SDS011;2987;50.884;14.818;2022-08-25T08:45:26;25.90;;;16.37;;
5923;SDS011;2987;50.884;14.818;2022-08-25T08:48:08;26.13;;;15.67;;
5923;SDS011;2987;50.884;14.818;2022-08-25T08:56:10;27.13;;;14.00;;
5923;SDS011;2987;50.884;14.818;2022-08-25T08:58:46;26.20;;;14.23;;
5923;SDS011;2987;50.884;14.818;2022-08-25T09:01:18;23.77;;;12.67;;
5923;SDS011;2987;50.884;14.818;2022-08-25T09:04:17;26.00;;;12.43;;
5923;SDS011;2987;50.884;14.818;2022-08-25T09:06:50;23.10;;;11.60;;
5923;SDS011;2987;50.884;14.818;2022-08-25T09:09:26;19.43;;;11.70;;
5923;SDS011;2987;50.884;14.818;2022-08-25T09:17:53;19.83;;;10.07;;
5923;SDS011;2987;50.884;14.818;2022-08-25T09:20:33;21.03;;;9.57;;
5923;SDS011;2987;50.884;14.818;2022-08-25T09:25:55;22.83;;;8.60;;
5923;SDS011;2987;50.884;14.818;2022-08-25T09:28:32;35.03;;;9.93;;
5923;SDS011;2987;50.884;14.818;2022-08-25T09:31:16;24.20;;;8.90;;
5923;SDS011;2987;50.884;14.818;2022-08-25T09:33:48;19.17;;;8.60;;
5923;SDS011;2987;50.884;14.818;2022-08-25T09:36:17;26.33;;;9.07;;
5923;SDS011;2987;50.884;14.818;2022-08-25T09:38:44;25.03;;;9.07;;
5923;SDS011;2987;50.884;14.818;2022-08-25T09:41:10;21.90;;;8.23;;
5923;SDS011;2987;50.884;14.818;2022-08-25T09:43:42;24.43;;;7.93;;
5923;SDS011;2987;50.884;14.818;2022-08-25T09:46:26;24.17;;;8.37;;
5923;SDS011;2987;50.884;14.818;2022-08-25T09:48:54;19.83;;;7.53;;
5923;SDS011;2987;50.884;14.818;2022-08-25T09:51:35;26.50;;;7.63;;
5923;SDS011;2987;50.884;14.818;2022-08-25T09:54:17;22.60;;;7.60;;
5923;SDS011;2987;50.884;14.818;2022-08-25T09:56:48;23.60;;;6.93;;
5923;SDS011;2987;50.884;14.818;2022-08-25T09:59:19;25.80;;;7.23;;
5923;SDS011;2987;50.884;14.818;2022-08-25T10:01:54;27.57;;;7.00;;
5923;SDS011;2987;50.884;14.818;2022-08-25T10:04:26;25.53;;;7.47;;
5923;SDS011;2987;50.884;14.818;2022-08-25T10:06:57;25.17;;;7.13;;
5923;SDS011;2987;50.884;14.818;2022-08-25T10:09:30;27.20;;;6.77;;
5923;SDS011;2987;50.884;14.818;2022-08-25T10:12:13;36.87;;;7.23;;
5923;SDS011;2987;50.884;14.818;2022-08-25T10:14:46;29.00;;;7.10;;
5923;SDS011;2987;50.884;14.818;2022-08-25T10:17:15;36.60;;;7.27;;
5923;SDS011;2987;50.884;14.818;2022-08-25T10:19:50;24.10;;;6.60;;
5923;SDS011;2987;50.884;14.818;2022-08-25T10:22:25;23.10;;;6.70;;
5923;SDS011;2987;50.884;14.818;2022-08-25T10:24:58;29.67;;;7.13;;
5923;SDS011;2987;50.884;14.818;2022-08-25T10:27:28;28.90;;;6.57;;
5923;SDS011;2987;50.884;14.818;2022-08-25T10:30:09;35.63;;;6.27;;
5923;SDS011;2987;50.884;14.818;2022-08-25T10:38:37;36.67;;;6.83;;
5923;SDS011;2987;50.884;14.818;2022-08-25T10:47:04;23.87;;;6.40;;
5923;SDS011;2987;50.884;14.818;2022-08-25T10:49:44;35.10;;;7.00;;
5923;SDS011;2987;50.884;14.818;2022-08-25T10:57:49;21.43;;;6.63;;
5923;SDS011;2987;50.884;14.818;2022-08-25T11:00:31;34.60;;;6.30;;
5923;SDS011;2987;50.884;14.818;2022-08-25T11:05:46;31.23;;;6.87;;
5923;SDS011;2987;50.884;14.818;2022-08-25T11:11:19;32.60;;;6.80;;
5923;SDS011;2987;50.884;14.818;2022-08-25T11:14:20;30.00;;;6.83;;
5923;SDS011;2987;50.884;14.818;2022-08-25T11:22:05;26.70;;;6.10;;
5923;SDS011;2987;50.884;14.818;2022-08-25T11:27:46;24.87;;;6.53;;
5923;SDS011;2987;50.884;14.818;2022-08-25T11:30:18;28.50;;;6.17;;
5923;SDS011;2987;50.884;14.818;2022-08-25T11:37:54;22.17;;;6.10;;
5923;SDS011;2987;50.884;14.818;2022-08-25T11:43:21;32.80;;;7.00;;
5923;SDS011;2987;50.884;14.818;2022-08-25T11:51:52;35.60;;;7.30;;
5923;SDS011;2987;50.884;14.818;2022-08-25T12:14:14;32.07;;;7.77;;
5923;SDS011;2987;50.884;14.818;2022-08-25T12:25:07;28.17;;;7.50;;
5923;SDS011;2987;50.884;14.818;2022-08-25T12:27:59;27.63;;;7.27;;
5923;SDS011;2987;50.884;14.818;2022-08-25T12:30:41;37.27;;;7.97;;
5923;SDS011;2987;50.884;14.818;2022-08-25T12:36:30;21.03;;;8.43;;
5923;SDS011;2987;50.884;14.818;2022-08-25T12:52:16;25.73;;;9.67;;
5923;SDS011;2987;50.884;14.818;2022-08-25T12:54:47;28.60;;;10.13;;
5923;SDS011;2987;50.884;14.818;2022-08-25T12:57:37;24.57;;;8.83;;
5923;SDS011;2987;50.884;14.818;2022-08-25T13:00:11;28.00;;;9.13;;
5923;SDS011;2987;50.884;14.818;2022-08-25T13:06:02;26.17;;;10.90;;
5923;SDS011;2987;50.884;14.818;2022-08-25T13:11:17;30.63;;;10.00;;
5923;SDS011;2987;50.884;14.818;2022-08-25T13:13:55;25.53;;;10.17;;
5923;SDS011;2987;50.884;14.818;2022-08-25T13:16:24;22.23;;;8.97;;
5923;SDS011;2987;50.884;14.818;2022-08-25T13:18:54;25.43;;;10.13;;
5923;SDS011;2987;50.884;14.818;2022-08-25T13:21:36;26.47;;;9.87;;
5923;SDS011;2987;50.884;14.818;2022-08-25T13:24:05;33.87;;;10.73;;
5923;SDS011;2987;50.884;14.818;2022-08-25T13:26:44;28.53;;;10.63;;
5923;SDS011;2987;50.884;14.818;2022-08-25T13:29:17;23.63;;;10.30;;
5923;SDS011;2987;50.884;14.818;2022-08-25T13:32:03;27.30;;;9.70;;
5923;SDS011;2987;50.884;14.818;2022-08-25T13:34:34;29.70;;;10.40;;
5923;SDS011;2987;50.884;14.818;2022-08-25T13:37:04;31.03;;;10.53;;
5923;SDS011;2987;50.884;14.818;2022-08-25T13:47:41;22.43;;;10.43;;
5923;SDS011;2987;50.884;14.818;2022-08-25T13:50:14;28.73;;;10.40;;
5923;SDS011;2987;50.884;14.818;2022-08-25T13:53:02;18.27;;;10.87;;
5923;SDS011;2987;50.884;14.818;2022-08-25T13:55:35;29.20;;;11.00;;
5923;SDS011;2987;50.884;14.818;2022-08-25T13:58:04;27.67;;;11.10;;
5923;SDS011;2987;50.884;14.818;2022-08-25T14:00:42;27.83;;;11.43;;
5923;SDS011;2987;50.884;14.818;2022-08-25T14:03:30;36.80;;;11.07;;
5923;SDS011;2987;50.884;14.818;2022-08-25T14:08:47;29.07;;;11.40;;
5923;SDS011;2987;50.884;14.818;2022-08-25T14:11:32;29.63;;;10.60;;
5923;SDS011;2987;50.884;14.818;2022-08-25T14:14:11;23.47;;;10.70;;
5923;SDS011;2987;50.884;14.818;2022-08-25T14:17:03;32.67;;;11.70;;
5923;SDS011;2987;50.884;14.818;2022-08-25T14:19:34;23.10;;;10.77;;
5923;SDS011;2987;50.884;14.818;2022-08-25T14:22:10;30.73;;;11.13;;
5923;SDS011;2987;50.884;14.818;2022-08-25T14:24:39;30.30;;;10.83;;
5923;SDS011;2987;50.884;14.818;2022-08-25T14:27:06;32.23;;;12.77;;
5923;SDS011;2987;50.884;14.818;2022-08-25T14:29:32;31.30;;;12.83;;
5923;SDS011;2987;50.884;14.818;2022-08-25T14:31:58;25.47;;;11.63;;
5923;SDS011;2987;50.884;14.818;2022-08-25T14:34:28;24.03;;;11.83;;
5923;SDS011;2987;50.884;14.818;2022-08-25T14:36:58;33.50;;;12.17;;
5923;SDS011;2987;50.884;14.818;2022-08-25T14:39:25;30.23;;;11.87;;
5923;SDS011;2987;50.884;14.818;2022-08-25T14:41:53;29.67;;;12.43;;
5923;SDS011;2987;50.884;14.818;2022-08-25T14:44:20;20.13;;;11.93;;
5923;SDS011;2987;50.884;14.818;2022-08-25T14:46:48;27.40;;;12.00;;
5923;SDS011;2987;50.884;14.818;2022-08-25T14:49:20;28.73;;;12.27;;
5923;SDS011;2987;50.884;14.818;2022-08-25T14:51:51;31.50;;;12.77;;
5923;SDS011;2987;50.884;14.818;2022-08-25T14:54:18;30.80;;;12.13;;
5923;SDS011;2987;50.884;14.818;2022-08-25T14:56:50;20.70;;;12.97;;
5923;SDS011;2987;50.884;14.818;2022-08-25T14:59:16;25.73;;;12.23;;
5923;SDS011;2987;50.884;14.818;2022-08-25T15:01:43;35.60;;;12.50;;
5923;SDS011;2987;50.884;14.818;2022-08-25T15:04:10;30.10;;;12.50;;
5923;SDS011;2987;50.884;14.818;2022-08-25T15:06:40;30.97;;;13.10;;
5923;SDS011;2987;50.884;14.818;2022-08-25T15:09:09;27.63;;;12.53;;
5923;SDS011;2987;50.884;14.818;2022-08-25T15:11:41;31.00;;;13.77;;
5923;SDS011;2987;50.884;14.818;2022-08-25T15:14:10;37.93;;;14.27;;
5923;SDS011;2987;50.884;14.818;2022-08-25T15:16:41;28.07;;;14.43;;
5923;SDS011;2987;50.884;14.818;2022-08-25T15:19:12;25.13;;;14.30;;
5923;SDS011;2987;50.884;14.818;2022-08-25T15:21:41;27.40;;;14.20;;
5923;SDS011;2987;50.884;14.818;2022-08-25T15:24:09;31.17;;;15.80;;
5923;SDS011;2987;50.884;14.818;2022-08-25T15:26:39;34.10;;;15.17;;
5923;SDS011;2987;50.884;14.818;2022-08-25T15:29:09;26.60;;;15.33;;
5923;SDS011;2987;50.884;14.818;2022-08-25T15:31:35;25.77;;;14.20;;
5923;SDS011;2987;50.884;14.818;2022-08-25T15:34:05;27.83;;;15.47;;
5923;SDS011;2987;50.884;14.818;2022-08-25T15:36:34;29.77;;;15.40;;
5923;SDS011;2987;50.884;14.818;2022-08-25T15:39:01;28.07;;;15.60;;
5923;SDS011;2987;50.884;14.818;2022-08-25T15:41:29;28.17;;;15.77;;
5923;SDS011;2987;50.884;14.818;2022-08-25T15:43:55;36.37;;;16.30;;
5923;SDS011;2987;50.884;14.818;2022-08-25T15:46:23;23.63;;;15.47;;
5923;SDS011;2987;50.884;14.818;2022-08-25T15:48:52;36.97;;;16.17;;
5923;SDS011;2987;50.884;14.818;2022-08-25T15:51:18;31.73;;;14.97;;
5923;SDS011;2987;50.884;14.818;2022-08-25T15:53:45;31.77;;;15.10;;
5923;SDS011;2987;50.884;14.818;2022-08-25T15:56:11;40.30;;;17.37;;
5923;SDS011;2987;50.884;14.818;2022-08-25T15:58:42;31.50;;;16.37;;
5923;SDS011;2987;50.884;14.818;2022-08-25T16:01:11;26.70;;;15.30;;
5923;SDS011;2987;50.884;14.818;2022-08-25T16:03:39;28.73;;;15.60;;
5923;SDS011;2987;50.884;14.818;2022-08-25T16:06:05;35.93;;;15.97;;
5923;SDS011;2987;50.884;14.818;2022-08-25T16:08:33;35.20;;;16.20;;
5923;SDS011;2987;50.884;14.818;2022-08-25T16:11:00;33.80;;;17.10;;
5923;SDS011;2987;50.884;14.818;2022-08-25T16:13:26;32.90;;;16.47;;
5923;SDS011;2987;50.884;14.818;2022-08-25T16:15:52;28.10;;;15.47;;
5923;SDS011;2987;50.884;14.818;2022-08-25T16:18:20;34.10;;;16.47;;
5923;SDS011;2987;50.884;14.818;2022-08-25T16:20:48;27.27;;;15.70;;
5923;SDS011;2987;50.884;14.818;2022-08-25T16:23:15;36.90;;;16.57;;
5923;SDS011;2987;50.884;14.818;2022-08-25T16:25:43;39.00;;;15.93;;
5923;SDS011;2987;50.884;14.818;2022-08-25T16:28:11;31.67;;;14.87;;
5923;SDS011;2987;50.884;14.818;2022-08-25T16:30:44;27.97;;;14.87;;
5923;SDS011;2987;50.884;14.818;2022-08-25T16:33:13;36.47;;;15.27;;
5923;SDS011;2987;50.884;14.818;2022-08-25T16:35:41;26.93;;;15.43;;
5923;SDS011;2987;50.884;14.818;2022-08-25T16:38:09;35.30;;;16.03;;
5923;SDS011;2987;50.884;14.818;2022-08-25T16:40:37;32.13;;;15.23;;
5923;SDS011;2987;50.884;14.818;2022-08-25T16:43:04;29.73;;;14.00;;
5923;SDS011;2987;50.884;14.818;2022-08-25T16:45:31;32.33;;;14.77;;
5923;SDS011;2987;50.884;14.818;2022-08-25T16:47:57;30.43;;;14.27;;
5923;SDS011;2987;50.884;14.818;2022-08-25T16:50:24;31.47;;;14.47;;
5923;SDS011;2987;50.884;14.818;2022-08-25T16:52:50;31.63;;;14.23;;
5923;SDS011;2987;50.884;14.818;2022-08-25T16:55:36;48.77;;;16.20;;